createdAt,value
2018-09-14T00:02:15.147Z,12.70
2018-09-14T00:04:43.815Z,12.70
2018-09-14T00:07:12.506Z,12.70
2018-09-14T00:09:41.192Z,12.60
2018-09-14T00:12:09.828Z,12.60
2018-09-14T00:14:38.480Z,12.60
2018-09-14T00:17:07.598Z,12.50
2018-09-14T00:19:36.474Z,12.50
2018-09-14T00:22:05.090Z,12.60
2018-09-14T00:24:33.704Z,12.50
2018-09-14T00:27:02.392Z,12.60
2018-09-14T00:29:31.014Z,12.60
2018-09-14T00:31:59.739Z,12.50
2018-09-14T00:34:28.495Z,12.40
2018-09-14T00:36:57.184Z,12.40
2018-09-14T00:39:25.817Z,12.40
2018-09-14T00:41:54.748Z,12.40
2018-09-14T00:44:23.363Z,12.40
2018-09-14T00:46:52.016Z,12.40
2018-09-14T00:49:20.696Z,12.30
2018-09-14T00:51:49.459Z,12.30
2018-09-14T00:54:18.085Z,12.30
2018-09-14T00:56:46.753Z,12.20
2018-09-14T00:59:15.418Z,12.30
2018-09-14T01:01:43.980Z,12.30
2018-09-14T01:04:12.600Z,12.30
2018-09-14T01:06:41.182Z,12.30
2018-09-14T01:09:15.156Z,12.20
2018-09-14T01:11:43.731Z,12.20
2018-09-14T01:14:12.340Z,12.20
2018-09-14T01:16:41.041Z,12.10
2018-09-14T01:19:09.606Z,12.10
2018-09-14T01:21:38.276Z,12.10
2018-09-14T01:24:07.048Z,12.00
2018-09-14T01:26:35.953Z,12.00
2018-09-14T01:29:04.720Z,12.10
2018-09-14T01:31:33.449Z,12.00
2018-09-14T01:34:02.199Z,12.00
2018-09-14T01:36:30.972Z,12.00
2018-09-14T01:38:59.757Z,12.00
2018-09-14T01:41:28.521Z,11.90
2018-09-14T01:43:57.113Z,12.00
2018-09-14T01:46:25.773Z,11.90
2018-09-14T01:48:54.455Z,11.90
2018-09-14T01:51:22.969Z,11.90
2018-09-14T01:53:51.576Z,11.90
2018-09-14T01:56:20.229Z,11.90
2018-09-14T01:58:49.098Z,11.90
2018-09-14T02:01:17.725Z,11.90
2018-09-14T02:03:46.602Z,11.90
2018-09-14T02:06:15.327Z,11.80
2018-09-14T02:08:43.971Z,11.90
2018-09-14T02:11:12.639Z,11.90
2018-09-14T02:13:41.244Z,11.90
2018-09-14T02:16:09.881Z,11.80
2018-09-14T02:18:38.494Z,11.80
2018-09-14T02:21:07.183Z,11.80
2018-09-14T02:23:35.862Z,11.80
2018-09-14T02:26:04.531Z,11.80
2018-09-14T02:28:33.164Z,11.70
2018-09-14T02:31:01.785Z,11.60
2018-09-14T02:33:30.908Z,11.50
2018-09-14T02:35:59.603Z,11.40
2018-09-14T02:38:28.189Z,11.30
2018-09-14T02:40:57.096Z,11.30
2018-09-14T02:43:25.776Z,11.20
2018-09-14T02:45:54.485Z,11.10
2018-09-14T02:48:23.261Z,11.10
2018-09-14T02:50:51.897Z,11.10
2018-09-14T02:53:20.573Z,11.00
2018-09-14T02:55:49.243Z,11.00
2018-09-14T02:58:17.852Z,10.90
2018-09-14T03:00:46.542Z,10.90
2018-09-14T03:03:15.139Z,10.90
2018-09-14T03:05:43.750Z,10.80
2018-09-14T03:08:12.379Z,10.70
2018-09-14T03:10:40.969Z,10.70
2018-09-14T03:13:09.875Z,10.70
2018-09-14T03:15:38.663Z,10.70
2018-09-14T03:18:07.402Z,10.70
2018-09-14T03:20:36.728Z,10.70
2018-09-14T03:23:05.400Z,10.70
2018-09-14T03:25:34.102Z,10.60
2018-09-14T03:28:02.732Z,10.60
2018-09-14T03:30:31.331Z,10.50
2018-09-14T03:32:59.993Z,10.40
2018-09-14T03:35:28.579Z,10.30
2018-09-14T03:37:57.122Z,10.30
2018-09-14T03:40:26.075Z,10.30
2018-09-14T03:42:54.670Z,10.30
2018-09-14T03:45:23.417Z,10.30
2018-09-14T03:47:51.975Z,10.30
2018-09-14T03:50:20.642Z,10.20
2018-09-14T03:52:49.242Z,10.20
2018-09-14T03:55:17.984Z,10.20
2018-09-14T03:57:46.601Z,10.10
2018-09-14T04:00:15.265Z,10.20
2018-09-14T04:02:44.111Z,10.10
2018-09-14T04:05:12.760Z,10.10
2018-09-14T04:07:41.619Z,10.10
2018-09-14T04:10:10.276Z,10.10
2018-09-14T04:12:39.002Z,10.10
2018-09-14T04:15:07.711Z,10.10
2018-09-14T04:17:36.298Z,10.00
2018-09-14T04:20:04.952Z,10.00
2018-09-14T04:22:33.577Z,10.00
2018-09-14T04:25:02.274Z,9.90
2018-09-14T04:27:30.903Z,9.80
2018-09-14T04:29:59.507Z,9.80
2018-09-14T04:32:28.185Z,9.70
2018-09-14T04:34:57.619Z,9.70
2018-09-14T04:37:26.345Z,9.70
2018-09-14T04:39:55.294Z,9.70
2018-09-14T04:42:23.877Z,9.70
2018-09-14T04:44:52.539Z,9.60
2018-09-14T04:47:21.152Z,9.60
2018-09-14T04:49:49.881Z,9.60
2018-09-14T04:52:18.551Z,9.70
2018-09-14T04:54:47.353Z,9.60
2018-09-14T04:57:15.943Z,9.60
2018-09-14T04:59:45.377Z,9.60
2018-09-14T05:02:14.050Z,9.60
2018-09-14T05:04:42.614Z,9.60
2018-09-14T05:07:11.334Z,9.50
2018-09-14T05:09:40.610Z,9.50
2018-09-14T05:12:09.614Z,9.50
2018-09-14T05:14:38.216Z,9.40
2018-09-14T05:17:06.860Z,9.40
2018-09-14T05:19:35.477Z,9.40
2018-09-14T05:22:04.083Z,9.30
2018-09-14T05:24:32.811Z,9.30
2018-09-14T05:27:01.393Z,9.30
2018-09-14T05:29:29.970Z,9.20
2018-09-14T05:31:58.777Z,9.20
2018-09-14T05:34:27.448Z,9.30
2018-09-14T05:36:56.188Z,9.30
2018-09-14T05:39:25.074Z,9.30
2018-09-14T05:41:54.502Z,9.20
2018-09-14T05:44:23.116Z,9.40
2018-09-14T05:46:51.913Z,9.50
2018-09-14T05:49:20.655Z,9.50
2018-09-14T05:51:49.899Z,9.60
2018-09-14T05:54:18.533Z,9.70
2018-09-14T05:56:47.171Z,10.00
2018-09-14T05:59:16.161Z,10.50
2018-09-14T06:01:44.715Z,10.90
2018-09-14T06:04:13.681Z,11.00
2018-09-14T06:06:42.293Z,10.90
2018-09-14T06:09:13.253Z,10.80
2018-09-14T06:11:42.413Z,10.60
2018-09-14T06:14:11.068Z,10.50
2018-09-14T06:16:39.955Z,10.40
2018-09-14T06:19:08.645Z,10.40
2018-09-14T06:21:37.317Z,10.50
2018-09-14T06:24:06.010Z,10.50
2018-09-14T06:26:34.708Z,10.60
2018-09-14T06:29:03.591Z,10.60
2018-09-14T06:31:32.384Z,10.70
2018-09-14T06:34:01.198Z,10.80
2018-09-14T06:36:30.378Z,10.90
2018-09-14T06:38:59.049Z,11.00
2018-09-14T06:41:27.770Z,11.10
2018-09-14T06:43:56.405Z,11.10
2018-09-14T06:46:25.210Z,11.20
2018-09-14T06:48:53.941Z,11.40
2018-09-14T06:51:22.707Z,11.40
2018-09-14T06:53:51.488Z,11.40
2018-09-14T06:56:20.355Z,11.50
2018-09-14T06:58:49.258Z,11.70
2018-09-14T07:01:18.882Z,11.80
2018-09-14T07:03:47.596Z,11.80
2018-09-14T07:06:16.401Z,11.80
2018-09-14T07:08:45.134Z,11.70
2018-09-14T07:11:13.879Z,11.90
2018-09-14T07:13:42.554Z,11.90
2018-09-14T07:16:11.210Z,12.00
2018-09-14T07:18:39.851Z,12.10
2018-09-14T07:21:08.742Z,12.10
2018-09-14T07:23:37.626Z,12.20
2018-09-14T07:26:06.389Z,12.20
2018-09-14T07:28:35.319Z,12.20
2018-09-14T07:31:04.381Z,12.30
2018-09-14T07:33:33.192Z,12.30
2018-09-14T07:36:01.831Z,12.30
2018-09-14T07:38:30.426Z,12.40
2018-09-14T07:40:59.339Z,12.50
2018-09-14T07:43:27.948Z,12.60
2018-09-14T07:45:56.883Z,12.80
2018-09-14T07:48:25.659Z,12.90
2018-09-14T07:50:54.301Z,12.90
2018-09-14T07:53:23.027Z,12.90
2018-09-14T07:55:52.153Z,13.00
2018-09-14T07:58:20.976Z,13.20
2018-09-14T08:00:49.713Z,13.30
2018-09-14T08:03:18.440Z,13.40
2018-09-14T08:05:47.073Z,13.60
2018-09-14T08:08:15.657Z,13.70
2018-09-14T08:10:44.372Z,13.80
2018-09-14T08:13:13.131Z,13.90
2018-09-14T08:15:41.783Z,13.90
2018-09-14T08:18:10.470Z,14.00
2018-09-14T08:20:39.197Z,14.10
2018-09-14T08:23:08.153Z,14.10
2018-09-14T08:25:36.891Z,14.10
2018-09-14T08:28:05.725Z,14.20
2018-09-14T08:30:34.445Z,14.40
2018-09-14T08:33:03.428Z,14.40
2018-09-14T08:35:32.292Z,14.50
2018-09-14T08:38:01.984Z,14.60
2018-09-14T08:40:30.954Z,14.70
2018-09-14T08:42:59.782Z,14.80
2018-09-14T08:45:28.488Z,14.80
2018-09-14T08:47:57.947Z,14.90
2018-09-14T08:50:27.415Z,14.90
2018-09-14T08:52:56.219Z,14.90
2018-09-14T08:55:24.938Z,15.00
2018-09-14T08:57:53.798Z,15.00
2018-09-14T09:00:24.557Z,15.10
2018-09-14T09:02:54.305Z,15.10
2018-09-14T09:05:23.785Z,15.20
2018-09-14T09:07:52.448Z,15.20
2018-09-14T09:10:21.218Z,15.30
2018-09-14T09:12:50.007Z,15.30
2018-09-14T09:15:18.719Z,15.40
2018-09-14T09:17:47.535Z,15.40
2018-09-14T09:20:16.270Z,15.50
2018-09-14T09:22:44.953Z,15.50
2018-09-14T09:25:13.679Z,15.60
2018-09-14T09:27:42.382Z,15.60
2018-09-14T09:30:11.184Z,15.80
2018-09-14T09:32:40.051Z,15.90
2018-09-14T09:35:09.367Z,16.00
2018-09-14T09:37:38.043Z,16.10
2018-09-14T09:40:07.129Z,16.20
2018-09-14T09:42:36.038Z,16.20
2018-09-14T09:45:06.025Z,16.30
2018-09-14T09:47:34.765Z,16.40
2018-09-14T09:50:04.436Z,16.40
2018-09-14T09:52:33.152Z,16.40
2018-09-14T09:55:01.866Z,16.50
2018-09-14T09:57:30.692Z,16.60
2018-09-14T09:59:59.393Z,16.60
2018-09-14T10:02:29.791Z,16.60
2018-09-14T10:05:03.729Z,16.70
2018-09-14T10:07:32.564Z,16.80
2018-09-14T10:10:01.551Z,16.90
2018-09-14T10:12:30.216Z,17.00
2018-09-14T10:14:58.906Z,17.00
2018-09-14T10:17:27.567Z,17.20
2018-09-14T10:19:56.261Z,17.30
2018-09-14T10:22:25.265Z,17.40
2018-09-14T10:24:54.077Z,17.50
2018-09-14T10:27:22.798Z,17.60
2018-09-14T10:29:51.495Z,17.60
2018-09-14T10:32:20.260Z,17.80
2018-09-14T10:34:48.983Z,17.80
2018-09-14T10:37:17.846Z,18.00
2018-09-14T10:39:46.458Z,18.10
2018-09-14T10:42:15.078Z,18.30
2018-09-14T10:44:43.735Z,18.40
2018-09-14T10:47:12.518Z,18.50
2018-09-14T10:49:41.285Z,18.70
2018-09-14T10:52:10.071Z,18.90
2018-09-14T10:54:39.013Z,19.00
2018-09-14T10:57:07.953Z,19.00
2018-09-14T10:59:36.783Z,19.20
2018-09-14T11:02:05.570Z,19.60
2018-09-14T11:04:34.383Z,19.80
2018-09-14T11:07:03.213Z,20.10
2018-09-14T11:09:32.240Z,20.00
2018-09-14T11:12:02.024Z,20.10
2018-09-14T11:14:30.781Z,20.40
2018-09-14T11:16:59.507Z,20.40
2018-09-14T11:19:28.460Z,20.30
2018-09-14T11:21:57.856Z,20.40
2018-09-14T11:24:26.679Z,20.40
2018-09-14T11:26:55.438Z,20.30
2018-09-14T11:29:24.705Z,20.30
2018-09-14T11:31:53.400Z,20.20
2018-09-14T11:34:22.145Z,20.30
2018-09-14T11:36:51.067Z,20.30
2018-09-14T11:39:19.689Z,20.30
2018-09-14T11:41:48.382Z,20.20
2018-09-14T11:44:17.335Z,20.20
2018-09-14T11:46:46.003Z,20.20
2018-09-14T11:49:14.734Z,19.90
2018-09-14T11:51:43.501Z,19.90
2018-09-14T11:54:12.240Z,20.10
2018-09-14T11:56:40.834Z,19.90
2018-09-14T11:59:09.508Z,19.50
2018-09-14T12:01:38.286Z,19.40
2018-09-14T12:04:07.065Z,19.50
2018-09-14T12:06:35.849Z,19.60
2018-09-14T12:09:06.487Z,19.80
2018-09-14T12:11:35.169Z,20.00
2018-09-14T12:14:03.907Z,20.10
2018-09-14T12:16:32.659Z,20.30
2018-09-14T12:19:01.374Z,20.40
2018-09-14T12:21:30.021Z,20.40
2018-09-14T12:23:58.889Z,20.50
2018-09-14T12:26:27.717Z,20.50
2018-09-14T12:28:56.278Z,20.50
2018-09-14T12:31:24.998Z,20.60
2018-09-14T12:33:53.583Z,20.60
2018-09-14T12:36:22.484Z,20.80
2018-09-14T12:38:51.074Z,20.80
2018-09-14T12:41:19.873Z,20.80
2018-09-14T12:43:48.624Z,20.80
2018-09-14T12:46:17.617Z,20.70
2018-09-14T12:48:46.674Z,20.50
2018-09-14T12:51:15.395Z,20.50
2018-09-14T12:53:44.318Z,20.70
2018-09-14T12:56:13.000Z,20.80
2018-09-14T12:58:41.763Z,21.00
2018-09-14T13:01:10.426Z,21.00
2018-09-14T13:03:39.292Z,21.10
2018-09-14T13:06:07.950Z,21.10
2018-09-14T13:08:36.751Z,21.10
2018-09-14T13:11:05.588Z,21.10
2018-09-14T13:13:34.324Z,21.20
2018-09-14T13:16:03.028Z,21.20
2018-09-14T13:18:31.815Z,21.40
2018-09-14T13:21:01.490Z,21.40
2018-09-14T13:23:30.228Z,21.30
2018-09-14T13:26:00.170Z,21.20
2018-09-14T13:28:30.122Z,21.20
2018-09-14T13:30:58.995Z,21.30
2018-09-14T13:33:27.697Z,21.20
2018-09-14T13:35:56.529Z,21.20
2018-09-14T13:38:25.291Z,21.30
2018-09-14T13:40:54.055Z,21.20
2018-09-14T13:43:22.826Z,21.10
2018-09-14T13:45:51.538Z,21.20
2018-09-14T13:48:20.508Z,21.20
2018-09-14T13:50:49.200Z,21.10
2018-09-14T13:53:17.894Z,21.00
2018-09-14T13:55:46.529Z,20.60
2018-09-14T13:58:15.279Z,20.50
2018-09-14T14:00:44.025Z,20.40
2018-09-14T14:03:12.943Z,20.50
2018-09-14T14:05:41.608Z,20.60
2018-09-14T14:08:10.261Z,20.70
2018-09-14T14:10:38.949Z,20.70
2018-09-14T14:13:07.630Z,20.90
2018-09-14T14:15:36.294Z,20.90
2018-09-14T14:18:05.142Z,20.90
2018-09-14T14:20:33.884Z,21.10
2018-09-14T14:23:02.571Z,21.20
2018-09-14T14:25:31.237Z,21.10
2018-09-14T14:28:00.008Z,20.90
2018-09-14T14:30:28.686Z,20.90
2018-09-14T14:32:57.713Z,21.00
2018-09-14T14:35:26.476Z,20.90
2018-09-14T14:37:55.135Z,20.80
2018-09-14T14:40:23.791Z,20.70
2018-09-14T14:42:52.433Z,20.60
2018-09-14T14:45:21.061Z,20.80
2018-09-14T14:47:49.744Z,20.70
2018-09-14T14:50:18.381Z,20.60
2018-09-14T14:52:47.012Z,20.70
2018-09-14T14:55:16.064Z,20.80
2018-09-14T14:57:44.830Z,20.80
2018-09-14T15:00:13.480Z,20.80
2018-09-14T15:02:42.076Z,20.70
2018-09-14T15:05:10.835Z,20.70
2018-09-14T15:07:39.468Z,20.80
2018-09-14T15:10:08.162Z,20.80
2018-09-14T15:12:36.793Z,20.80
2018-09-14T15:15:05.551Z,20.80
2018-09-14T15:17:34.483Z,20.70
2018-09-14T15:20:03.297Z,20.60
2018-09-14T15:22:32.070Z,20.70
2018-09-14T15:25:00.963Z,20.70
2018-09-14T15:27:30.687Z,20.60
2018-09-14T15:29:59.609Z,20.60
2018-09-14T15:32:28.263Z,20.50
2018-09-14T15:34:57.547Z,20.50
2018-09-14T15:37:26.576Z,20.50
2018-09-14T15:39:56.130Z,20.50
2018-09-14T15:42:25.124Z,20.50
2018-09-14T15:44:53.847Z,20.40
2018-09-14T15:47:22.555Z,20.50
2018-09-14T15:49:51.334Z,20.50
2018-09-14T15:52:20.064Z,20.50
2018-09-14T15:54:48.728Z,20.50
2018-09-14T15:57:17.452Z,20.50
2018-09-14T15:59:46.155Z,20.50
2018-09-14T16:02:15.032Z,20.50
2018-09-14T16:04:43.716Z,20.50
2018-09-14T16:07:12.443Z,20.60
2018-09-14T16:09:41.152Z,20.60
2018-09-14T16:12:09.891Z,20.50
2018-09-14T16:14:38.626Z,20.50
2018-09-14T16:17:07.431Z,20.50
2018-09-14T16:19:36.455Z,20.40
2018-09-14T16:22:05.308Z,20.30
2018-09-14T16:24:34.281Z,20.30
2018-09-14T16:27:03.046Z,20.20
2018-09-14T16:29:31.730Z,20.20
2018-09-14T16:32:00.631Z,20.10
2018-09-14T16:34:29.265Z,20.20
2018-09-14T16:36:58.096Z,20.30
2018-09-14T16:39:26.858Z,20.30
2018-09-14T16:41:55.597Z,20.30
2018-09-14T16:44:24.297Z,20.30
2018-09-14T16:46:53.024Z,20.40
2018-09-14T16:49:21.728Z,20.40
2018-09-14T16:51:51.492Z,20.20
2018-09-14T16:54:20.148Z,20.20
2018-09-14T16:56:48.854Z,20.20
2018-09-14T16:59:17.484Z,20.20
2018-09-14T17:01:46.686Z,20.20
2018-09-14T17:04:15.779Z,20.00
2018-09-14T17:06:44.404Z,19.80
2018-09-14T17:09:13.057Z,19.80
2018-09-14T17:11:42.546Z,19.60
2018-09-14T17:14:11.258Z,19.60
2018-09-14T17:16:40.150Z,19.40
2018-09-14T17:19:09.010Z,19.30
2018-09-14T17:21:37.780Z,19.20
2018-09-14T17:24:06.380Z,19.10
2018-09-14T17:26:35.387Z,19.10
2018-09-14T17:29:04.130Z,19.10
2018-09-14T17:31:32.846Z,19.00
2018-09-14T17:34:01.606Z,18.90
2018-09-14T17:36:30.438Z,18.90
2018-09-14T17:38:59.202Z,18.80
2018-09-14T17:41:27.951Z,18.70
2018-09-14T17:44:01.878Z,18.70
2018-09-14T17:46:26.282Z,18.60
2018-09-14T17:48:55.047Z,18.50
2018-09-14T17:51:23.754Z,18.50
2018-09-14T17:53:52.539Z,18.50
2018-09-14T17:56:21.320Z,18.40
2018-09-14T17:58:50.113Z,18.40
2018-09-14T18:01:19.040Z,18.30
2018-09-14T18:03:47.962Z,18.30
2018-09-14T18:06:16.682Z,18.30
2018-09-14T18:08:45.846Z,18.20
2018-09-14T18:11:15.404Z,18.20
2018-09-14T18:13:44.250Z,18.10
2018-09-14T18:16:13.029Z,18.10
2018-09-14T18:18:41.682Z,18.10
2018-09-14T18:21:10.414Z,18.00
2018-09-14T18:23:39.603Z,17.90
2018-09-14T18:26:08.432Z,17.90
2018-09-14T18:28:37.255Z,17.90
2018-09-14T18:31:06.079Z,17.90
2018-09-14T18:33:34.830Z,17.90
2018-09-14T18:36:03.576Z,17.80
2018-09-14T18:38:32.573Z,17.60
2018-09-14T18:41:01.292Z,17.60
2018-09-14T18:43:29.946Z,17.60
2018-09-14T18:45:58.701Z,17.60
2018-09-14T18:48:27.952Z,17.50
2018-09-14T18:50:56.666Z,17.60
2018-09-14T18:53:25.470Z,17.60
2018-09-14T18:55:54.143Z,17.60
2018-09-14T18:58:22.858Z,17.50
2018-09-14T19:00:51.625Z,17.50
2018-09-14T19:03:20.415Z,17.50
2018-09-14T19:05:49.303Z,17.50
2018-09-14T19:08:18.514Z,17.40
2018-09-14T19:10:47.197Z,17.40
2018-09-14T19:13:15.928Z,17.40
2018-09-14T19:15:44.557Z,17.50
2018-09-14T19:18:13.364Z,17.50
2018-09-14T19:20:42.238Z,17.40
2018-09-14T19:23:10.955Z,17.40
2018-09-14T19:25:39.842Z,17.40
2018-09-14T19:28:09.286Z,17.30
2018-09-14T19:30:38.129Z,17.30
2018-09-14T19:33:06.912Z,17.30
2018-09-14T19:35:36.344Z,17.30
2018-09-14T19:38:06.186Z,17.30
2018-09-14T19:40:34.986Z,17.30
2018-09-14T19:43:04.152Z,17.30
2018-09-14T19:45:33.651Z,17.20
2018-09-14T19:48:02.945Z,17.20
2018-09-14T19:50:31.647Z,17.20
2018-09-14T19:53:00.758Z,17.10
2018-09-14T19:55:29.860Z,17.00
2018-09-14T19:57:59.025Z,17.00
2018-09-14T20:00:27.668Z,17.00
2018-09-14T20:02:56.350Z,17.00
2018-09-14T20:05:25.491Z,17.00
2018-09-14T20:07:54.573Z,17.00
2018-09-14T20:10:23.362Z,16.90
2018-09-14T20:12:52.128Z,16.80
2018-09-14T20:15:20.957Z,16.80
2018-09-14T20:17:49.712Z,16.90
2018-09-14T20:20:19.486Z,16.80
2018-09-14T20:22:48.339Z,16.80
2018-09-14T20:25:17.070Z,16.80
2018-09-14T20:27:45.884Z,16.80
2018-09-14T20:30:14.589Z,16.90
2018-09-14T20:32:43.505Z,16.80
2018-09-14T20:35:12.167Z,16.90
2018-09-14T20:37:40.745Z,16.90
2018-09-14T20:40:09.371Z,16.90
2018-09-14T20:42:38.061Z,16.80
2018-09-14T20:45:07.030Z,16.80
2018-09-14T20:47:35.971Z,16.80
2018-09-14T20:50:04.822Z,16.90
2018-09-14T20:52:33.484Z,16.90
2018-09-14T20:55:02.302Z,16.90
2018-09-14T20:57:31.570Z,16.90
2018-09-14T21:00:00.464Z,16.80
2018-09-14T21:02:29.340Z,16.80
2018-09-14T21:04:57.982Z,16.80
2018-09-14T21:07:27.029Z,16.80
2018-09-14T21:09:55.632Z,16.80
2018-09-14T21:12:24.348Z,16.80
2018-09-14T21:14:53.027Z,16.80
2018-09-14T21:17:21.666Z,16.80
2018-09-14T21:19:50.306Z,16.80
2018-09-14T21:22:18.912Z,16.80
2018-09-14T21:24:47.661Z,16.80
2018-09-14T21:27:16.425Z,16.80
2018-09-14T21:29:45.203Z,16.80
2018-09-14T21:32:13.815Z,16.70
2018-09-14T21:34:42.595Z,16.70
2018-09-14T21:37:11.272Z,16.60
2018-09-14T21:39:39.967Z,16.60
2018-09-14T21:42:08.558Z,16.60
2018-09-14T21:44:37.222Z,16.60
2018-09-14T21:47:06.260Z,16.70
2018-09-14T21:49:34.876Z,16.60
2018-09-14T21:52:03.575Z,16.60
2018-09-14T21:54:32.389Z,16.70
2018-09-14T21:57:01.266Z,16.70
2018-09-14T21:59:29.944Z,16.70
2018-09-14T22:01:58.754Z,16.60
2018-09-14T22:04:27.539Z,16.70
2018-09-14T22:06:56.218Z,16.70
2018-09-14T22:09:25.010Z,16.50
2018-09-14T22:11:53.695Z,16.40
2018-09-14T22:14:22.365Z,16.30
2018-09-14T22:16:51.077Z,16.30
2018-09-14T22:19:19.860Z,16.20
2018-09-14T22:21:48.724Z,16.20
2018-09-14T22:24:17.375Z,16.30
2018-09-14T22:26:46.207Z,16.30
2018-09-14T22:29:14.807Z,16.30
2018-09-14T22:31:43.507Z,16.30
2018-09-14T22:34:12.175Z,16.30
2018-09-14T22:36:40.864Z,16.20
2018-09-14T22:39:11.573Z,16.10
2018-09-14T22:41:40.420Z,16.00
2018-09-14T22:44:09.399Z,16.00
2018-09-14T22:46:38.190Z,15.90
2018-09-14T22:49:06.932Z,15.90
2018-09-14T22:51:35.675Z,15.80
2018-09-14T22:54:04.346Z,15.80
2018-09-14T22:56:32.933Z,15.80
2018-09-14T22:59:01.586Z,15.80
2018-09-14T23:01:30.173Z,15.90
2018-09-14T23:03:58.902Z,15.80
2018-09-14T23:06:27.514Z,15.80
2018-09-14T23:08:56.166Z,15.70
2018-09-14T23:11:24.686Z,15.60
2018-09-14T23:13:53.365Z,15.70
2018-09-14T23:16:22.154Z,15.50
2018-09-14T23:18:51.076Z,15.50
2018-09-14T23:21:19.790Z,15.50
2018-09-14T23:23:48.545Z,15.40
2018-09-14T23:26:19.891Z,15.40
2018-09-14T23:28:48.785Z,15.30
2018-09-14T23:31:17.418Z,15.30
2018-09-14T23:33:46.163Z,15.30
2018-09-14T23:36:14.829Z,15.30
2018-09-14T23:38:43.423Z,15.30
2018-09-14T23:41:12.095Z,15.20
2018-09-14T23:43:40.735Z,15.20
2018-09-14T23:46:09.542Z,15.10
2018-09-14T23:48:38.192Z,15.20
2018-09-14T23:51:06.845Z,15.20
2018-09-14T23:53:35.544Z,15.20
2018-09-14T23:56:05.334Z,15.10
2018-09-14T23:58:33.971Z,15.10
